sensor_id;sensor_type;location;lat;lon;timestamp;P1;durP1;ratioP1;P2;durP2;ratioP2
54937;SDS011;52756;52.826;6.214;2023-04-25T00:00:27;19.05;;;4.07;;
54937;SDS011;52756;52.826;6.214;2023-04-25T00:02:53;14.07;;;3.85;;
54937;SDS011;52756;52.826;6.214;2023-04-25T00:05:21;8.52;;;2.92;;
54937;SDS011;52756;52.826;6.214;2023-04-25T00:07:48;10.32;;;3.25;;
54937;SDS011;52756;52.826;6.214;2023-04-25T00:10:14;7.70;;;2.53;;
54937;SDS011;52756;52.826;6.214;2023-04-25T00:12:40;10.05;;;2.72;;
54937;SDS011;52756;52.826;6.214;2023-04-25T00:15:06;13.18;;;3.10;;
54937;SDS011;52756;52.826;6.214;2023-04-25T00:17:33;10.15;;;2.97;;
54937;SDS011;52756;52.826;6.214;2023-04-25T00:20:00;12.27;;;2.95;;
54937;SDS011;52756;52.826;6.214;2023-04-25T00:22:29;8.38;;;3.28;;
54937;SDS011;52756;52.826;6.214;2023-04-25T00:24:55;9.07;;;3.20;;
54937;SDS011;52756;52.826;6.214;2023-04-25T00:27:22;11.00;;;2.85;;
54937;SDS011;52756;52.826;6.214;2023-04-25T00:29:47;9.20;;;2.80;;
54937;SDS011;52756;52.826;6.214;2023-04-25T00:32:13;11.63;;;3.08;;
54937;SDS011;52756;52.826;6.214;2023-04-25T00:34:39;9.57;;;2.85;;
54937;SDS011;52756;52.826;6.214;2023-04-25T00:37:04;14.27;;;3.20;;
54937;SDS011;52756;52.826;6.214;2023-04-25T00:39:31;9.52;;;2.60;;
54937;SDS011;52756;52.826;6.214;2023-04-25T00:41:58;12.48;;;4.10;;
54937;SDS011;52756;52.826;6.214;2023-04-25T00:44:23;10.50;;;2.80;;
54937;SDS011;52756;52.826;6.214;2023-04-25T00:46:51;13.90;;;3.53;;
54937;SDS011;52756;52.826;6.214;2023-04-25T00:49:18;10.32;;;2.97;;
54937;SDS011;52756;52.826;6.214;2023-04-25T00:51:44;14.27;;;2.95;;
54937;SDS011;52756;52.826;6.214;2023-04-25T00:54:11;9.48;;;3.42;;
54937;SDS011;52756;52.826;6.214;2023-04-25T00:56:37;11.73;;;2.78;;
54937;SDS011;52756;52.826;6.214;2023-04-25T00:59:03;9.02;;;2.70;;
54937;SDS011;52756;52.826;6.214;2023-04-25T01:01:29;10.88;;;3.40;;
54937;SDS011;52756;52.826;6.214;2023-04-25T01:03:56;11.02;;;3.35;;
54937;SDS011;52756;52.826;6.214;2023-04-25T01:06:23;12.55;;;3.08;;
54937;SDS011;52756;52.826;6.214;2023-04-25T01:08:49;11.80;;;3.50;;
54937;SDS011;52756;52.826;6.214;2023-04-25T01:11:16;9.50;;;3.28;;
54937;SDS011;52756;52.826;6.214;2023-04-25T01:13:42;9.88;;;3.00;;
54937;SDS011;52756;52.826;6.214;2023-04-25T01:16:08;7.25;;;2.60;;
54937;SDS011;52756;52.826;6.214;2023-04-25T01:18:34;9.88;;;2.63;;
54937;SDS011;52756;52.826;6.214;2023-04-25T01:21:07;12.48;;;3.10;;
54937;SDS011;52756;52.826;6.214;2023-04-25T01:23:41;9.75;;;3.20;;
54937;SDS011;52756;52.826;6.214;2023-04-25T01:26:10;10.05;;;2.85;;
54937;SDS011;52756;52.826;6.214;2023-04-25T01:28:37;14.40;;;3.58;;
54937;SDS011;52756;52.826;6.214;2023-04-25T01:31:06;10.95;;;3.40;;
54937;SDS011;52756;52.826;6.214;2023-04-25T01:33:32;13.20;;;3.45;;
54937;SDS011;52756;52.826;6.214;2023-04-25T01:35:58;10.57;;;3.15;;
54937;SDS011;52756;52.826;6.214;2023-04-25T01:38:24;13.07;;;2.72;;
54937;SDS011;52756;52.826;6.214;2023-04-25T01:40:50;8.15;;;2.70;;
54937;SDS011;52756;52.826;6.214;2023-04-25T01:43:17;10.05;;;3.60;;
54937;SDS011;52756;52.826;6.214;2023-04-25T01:45:43;9.43;;;2.40;;
54937;SDS011;52756;52.826;6.214;2023-04-25T01:48:09;10.20;;;3.13;;
54937;SDS011;52756;52.826;6.214;2023-04-25T01:50:36;9.68;;;3.00;;
54937;SDS011;52756;52.826;6.214;2023-04-25T01:53:03;5.90;;;2.85;;
54937;SDS011;52756;52.826;6.214;2023-04-25T01:55:29;10.38;;;2.72;;
54937;SDS011;52756;52.826;6.214;2023-04-25T01:57:55;8.90;;;3.00;;
54937;SDS011;52756;52.826;6.214;2023-04-25T02:00:21;7.55;;;2.70;;
54937;SDS011;52756;52.826;6.214;2023-04-25T02:02:48;9.38;;;2.67;;
54937;SDS011;52756;52.826;6.214;2023-04-25T02:05:15;8.73;;;2.60;;
54937;SDS011;52756;52.826;6.214;2023-04-25T02:07:42;7.25;;;2.72;;
54937;SDS011;52756;52.826;6.214;2023-04-25T02:10:08;7.70;;;2.50;;
54937;SDS011;52756;52.826;6.214;2023-04-25T02:12:35;11.73;;;3.85;;
54937;SDS011;52756;52.826;6.214;2023-04-25T02:15:01;11.60;;;3.20;;
54937;SDS011;52756;52.826;6.214;2023-04-25T02:17:26;11.93;;;3.05;;
54937;SDS011;52756;52.826;6.214;2023-04-25T02:19:52;11.50;;;3.33;;
54937;SDS011;52756;52.826;6.214;2023-04-25T02:22:18;10.77;;;2.80;;
54937;SDS011;52756;52.826;6.214;2023-04-25T02:24:44;12.02;;;3.30;;
54937;SDS011;52756;52.826;6.214;2023-04-25T02:27:10;15.25;;;3.10;;
54937;SDS011;52756;52.826;6.214;2023-04-25T02:29:36;12.60;;;3.22;;
54937;SDS011;52756;52.826;6.214;2023-04-25T02:32:01;10.13;;;2.58;;
54937;SDS011;52756;52.826;6.214;2023-04-25T02:34:27;8.68;;;2.22;;
54937;SDS011;52756;52.826;6.214;2023-04-25T02:36:53;7.18;;;2.63;;
54937;SDS011;52756;52.826;6.214;2023-04-25T02:39:18;8.52;;;2.60;;
54937;SDS011;52756;52.826;6.214;2023-04-25T02:41:44;10.07;;;3.15;;
54937;SDS011;52756;52.826;6.214;2023-04-25T02:44:10;8.90;;;2.13;;
54937;SDS011;52756;52.826;6.214;2023-04-25T02:46:35;10.38;;;2.67;;
54937;SDS011;52756;52.826;6.214;2023-04-25T02:49:01;8.32;;;2.22;;
54937;SDS011;52756;52.826;6.214;2023-04-25T02:51:27;9.45;;;2.40;;
54937;SDS011;52756;52.826;6.214;2023-04-25T02:53:52;9.93;;;2.10;;
54937;SDS011;52756;52.826;6.214;2023-04-25T02:56:18;8.32;;;2.55;;
54937;SDS011;52756;52.826;6.214;2023-04-25T02:58:44;8.32;;;2.30;;
54937;SDS011;52756;52.826;6.214;2023-04-25T03:01:10;10.07;;;2.78;;
54937;SDS011;52756;52.826;6.214;2023-04-25T03:03:36;9.23;;;2.45;;
54937;SDS011;52756;52.826;6.214;2023-04-25T03:06:01;9.05;;;2.60;;
54937;SDS011;52756;52.826;6.214;2023-04-25T03:08:27;11.52;;;2.15;;
54937;SDS011;52756;52.826;6.214;2023-04-25T03:10:57;8.13;;;2.30;;
54937;SDS011;52756;52.826;6.214;2023-04-25T03:13:23;10.63;;;2.78;;
54937;SDS011;52756;52.826;6.214;2023-04-25T03:15:49;8.27;;;2.22;;
54937;SDS011;52756;52.826;6.214;2023-04-25T03:18:15;11.68;;;2.10;;
54937;SDS011;52756;52.826;6.214;2023-04-25T03:20:41;6.82;;;1.65;;
54937;SDS011;52756;52.826;6.214;2023-04-25T03:23:07;9.20;;;1.85;;
54937;SDS011;52756;52.826;6.214;2023-04-25T03:25:33;6.78;;;1.73;;
54937;SDS011;52756;52.826;6.214;2023-04-25T03:27:59;7.65;;;1.92;;
54937;SDS011;52756;52.826;6.214;2023-04-25T03:30:24;5.90;;;1.33;;
54937;SDS011;52756;52.826;6.214;2023-04-25T03:32:50;7.20;;;1.70;;
54937;SDS011;52756;52.826;6.214;2023-04-25T03:35:16;5.07;;;1.60;;
54937;SDS011;52756;52.826;6.214;2023-04-25T03:37:42;6.40;;;1.73;;
54937;SDS011;52756;52.826;6.214;2023-04-25T03:40:10;6.00;;;1.83;;
54937;SDS011;52756;52.826;6.214;2023-04-25T03:42:36;5.72;;;1.70;;
54937;SDS011;52756;52.826;6.214;2023-04-25T03:45:02;6.68;;;1.60;;
54937;SDS011;52756;52.826;6.214;2023-04-25T03:47:28;9.10;;;1.85;;
54937;SDS011;52756;52.826;6.214;2023-04-25T03:49:54;6.72;;;1.60;;
54937;SDS011;52756;52.826;6.214;2023-04-25T03:52:20;6.38;;;1.50;;
54937;SDS011;52756;52.826;6.214;2023-04-25T03:54:46;5.88;;;1.55;;
54937;SDS011;52756;52.826;6.214;2023-04-25T03:57:11;7.75;;;1.75;;
54937;SDS011;52756;52.826;6.214;2023-04-25T03:59:37;6.90;;;2.35;;
54937;SDS011;52756;52.826;6.214;2023-04-25T04:02:03;6.40;;;1.52;;
54937;SDS011;52756;52.826;6.214;2023-04-25T04:04:29;6.50;;;1.55;;
54937;SDS011;52756;52.826;6.214;2023-04-25T04:06:55;8.65;;;1.88;;
54937;SDS011;52756;52.826;6.214;2023-04-25T04:09:21;8.27;;;1.77;;
54937;SDS011;52756;52.826;6.214;2023-04-25T04:11:47;8.98;;;1.77;;
54937;SDS011;52756;52.826;6.214;2023-04-25T04:14:12;8.25;;;1.70;;
54937;SDS011;52756;52.826;6.214;2023-04-25T04:16:38;6.30;;;1.50;;
54937;SDS011;52756;52.826;6.214;2023-04-25T04:19:04;5.57;;;1.65;;
54937;SDS011;52756;52.826;6.214;2023-04-25T04:21:30;10.23;;;1.60;;
54937;SDS011;52756;52.826;6.214;2023-04-25T04:23:57;7.35;;;2.45;;
54937;SDS011;52756;52.826;6.214;2023-04-25T04:26:25;7.20;;;1.60;;
54937;SDS011;52756;52.826;6.214;2023-04-25T04:28:51;4.93;;;1.02;;
54937;SDS011;52756;52.826;6.214;2023-04-25T04:31:22;5.25;;;1.33;;
54937;SDS011;52756;52.826;6.214;2023-04-25T04:33:49;7.60;;;1.35;;
54937;SDS011;52756;52.826;6.214;2023-04-25T04:36:15;6.40;;;1.30;;
54937;SDS011;52756;52.826;6.214;2023-04-25T04:38:44;5.75;;;2.10;;
54937;SDS011;52756;52.826;6.214;2023-04-25T04:41:10;6.28;;;1.30;;
54937;SDS011;52756;52.826;6.214;2023-04-25T04:43:36;4.95;;;1.63;;
54937;SDS011;52756;52.826;6.214;2023-04-25T04:46:02;4.75;;;1.23;;
54937;SDS011;52756;52.826;6.214;2023-04-25T04:48:31;6.20;;;1.60;;
54937;SDS011;52756;52.826;6.214;2023-04-25T04:50:59;4.85;;;1.63;;
54937;SDS011;52756;52.826;6.214;2023-04-25T04:53:25;6.45;;;2.38;;
54937;SDS011;52756;52.826;6.214;2023-04-25T04:55:51;11.27;;;3.17;;
54937;SDS011;52756;52.826;6.214;2023-04-25T04:58:17;9.48;;;2.90;;
54937;SDS011;52756;52.826;6.214;2023-04-25T05:00:43;11.50;;;3.45;;
54937;SDS011;52756;52.826;6.214;2023-04-25T05:03:09;8.98;;;2.53;;
54937;SDS011;52756;52.826;6.214;2023-04-25T05:05:36;8.75;;;1.95;;
54937;SDS011;52756;52.826;6.214;2023-04-25T05:08:05;8.75;;;2.15;;
54937;SDS011;52756;52.826;6.214;2023-04-25T05:10:31;8.25;;;2.03;;
54937;SDS011;52756;52.826;6.214;2023-04-25T05:12:56;7.53;;;2.08;;
54937;SDS011;52756;52.826;6.214;2023-04-25T05:15:22;7.95;;;2.08;;
54937;SDS011;52756;52.826;6.214;2023-04-25T05:17:48;7.15;;;2.13;;
54937;SDS011;52756;52.826;6.214;2023-04-25T05:20:13;6.00;;;1.83;;
54937;SDS011;52756;52.826;6.214;2023-04-25T05:22:40;6.85;;;2.25;;
54937;SDS011;52756;52.826;6.214;2023-04-25T05:25:07;10.40;;;2.40;;
54937;SDS011;52756;52.826;6.214;2023-04-25T05:27:34;8.85;;;2.17;;
54937;SDS011;52756;52.826;6.214;2023-04-25T05:30:00;13.07;;;2.70;;
54937;SDS011;52756;52.826;6.214;2023-04-25T05:32:26;8.73;;;2.90;;
54937;SDS011;52756;52.826;6.214;2023-04-25T05:34:51;11.73;;;4.35;;
54937;SDS011;52756;52.826;6.214;2023-04-25T05:37:17;12.07;;;5.03;;
54937;SDS011;52756;52.826;6.214;2023-04-25T05:39:43;14.40;;;3.97;;
54937;SDS011;52756;52.826;6.214;2023-04-25T05:42:09;10.82;;;2.53;;
54937;SDS011;52756;52.826;6.214;2023-04-25T05:44:35;8.00;;;1.95;;
54937;SDS011;52756;52.826;6.214;2023-04-25T05:47:01;8.02;;;2.22;;
54937;SDS011;52756;52.826;6.214;2023-04-25T05:49:26;9.23;;;2.33;;
54937;SDS011;52756;52.826;6.214;2023-04-25T05:51:52;7.53;;;1.77;;
54937;SDS011;52756;52.826;6.214;2023-04-25T05:54:18;6.55;;;1.95;;
54937;SDS011;52756;52.826;6.214;2023-04-25T05:56:43;7.50;;;2.15;;
54937;SDS011;52756;52.826;6.214;2023-04-25T05:59:09;7.53;;;1.60;;
54937;SDS011;52756;52.826;6.214;2023-04-25T06:01:35;6.07;;;1.40;;
54937;SDS011;52756;52.826;6.214;2023-04-25T06:04:01;6.35;;;1.50;;
54937;SDS011;52756;52.826;6.214;2023-04-25T06:06:26;3.75;;;1.17;;
54937;SDS011;52756;52.826;6.214;2023-04-25T06:08:52;6.05;;;1.55;;
54937;SDS011;52756;52.826;6.214;2023-04-25T06:11:18;6.13;;;1.70;;
54937;SDS011;52756;52.826;6.214;2023-04-25T06:13:45;7.00;;;1.63;;
54937;SDS011;52756;52.826;6.214;2023-04-25T06:16:11;4.88;;;1.42;;
54937;SDS011;52756;52.826;6.214;2023-04-25T06:18:36;6.03;;;2.13;;
54937;SDS011;52756;52.826;6.214;2023-04-25T06:21:02;8.68;;;1.85;;
54937;SDS011;52756;52.826;6.214;2023-04-25T06:23:28;5.07;;;1.52;;
54937;SDS011;52756;52.826;6.214;2023-04-25T06:25:54;7.07;;;1.50;;
54937;SDS011;52756;52.826;6.214;2023-04-25T06:28:19;5.70;;;1.50;;
54937;SDS011;52756;52.826;6.214;2023-04-25T06:30:47;6.45;;;2.13;;
54937;SDS011;52756;52.826;6.214;2023-04-25T06:33:12;7.55;;;1.50;;
54937;SDS011;52756;52.826;6.214;2023-04-25T06:35:38;8.57;;;1.92;;
54937;SDS011;52756;52.826;6.214;2023-04-25T06:38:04;5.35;;;1.52;;
54937;SDS011;52756;52.826;6.214;2023-04-25T06:40:29;7.60;;;2.58;;
54937;SDS011;52756;52.826;6.214;2023-04-25T06:42:55;6.20;;;1.65;;
54937;SDS011;52756;52.826;6.214;2023-04-25T06:45:21;6.78;;;2.85;;
54937;SDS011;52756;52.826;6.214;2023-04-25T06:47:46;9.63;;;3.17;;
54937;SDS011;52756;52.826;6.214;2023-04-25T06:50:12;8.23;;;2.63;;
54937;SDS011;52756;52.826;6.214;2023-04-25T06:52:38;9.75;;;2.40;;
54937;SDS011;52756;52.826;6.214;2023-04-25T06:55:03;11.35;;;3.35;;
54937;SDS011;52756;52.826;6.214;2023-04-25T06:57:30;7.70;;;1.80;;
54937;SDS011;52756;52.826;6.214;2023-04-25T06:59:56;7.63;;;2.00;;
54937;SDS011;52756;52.826;6.214;2023-04-25T07:02:21;9.43;;;2.05;;
54937;SDS011;52756;52.826;6.214;2023-04-25T07:04:47;6.22;;;1.75;;
54937;SDS011;52756;52.826;6.214;2023-04-25T07:07:13;9.40;;;2.28;;
54937;SDS011;52756;52.826;6.214;2023-04-25T07:09:39;6.40;;;2.03;;
54937;SDS011;52756;52.826;6.214;2023-04-25T07:12:05;5.70;;;1.77;;
54937;SDS011;52756;52.826;6.214;2023-04-25T07:14:30;5.53;;;1.90;;
54937;SDS011;52756;52.826;6.214;2023-04-25T07:16:56;4.40;;;1.20;;
54937;SDS011;52756;52.826;6.214;2023-04-25T07:19:22;5.55;;;1.75;;
54937;SDS011;52756;52.826;6.214;2023-04-25T07:21:51;5.47;;;1.63;;
54937;SDS011;52756;52.826;6.214;2023-04-25T07:24:17;5.53;;;2.05;;
54937;SDS011;52756;52.826;6.214;2023-04-25T07:26:43;5.80;;;1.48;;
54937;SDS011;52756;52.826;6.214;2023-04-25T07:29:09;6.53;;;1.73;;
54937;SDS011;52756;52.826;6.214;2023-04-25T07:31:34;5.25;;;1.80;;
54937;SDS011;52756;52.826;6.214;2023-04-25T07:34:00;4.30;;;1.38;;
54937;SDS011;52756;52.826;6.214;2023-04-25T07:36:26;4.40;;;1.50;;
54937;SDS011;52756;52.826;6.214;2023-04-25T07:38:52;5.50;;;1.45;;
54937;SDS011;52756;52.826;6.214;2023-04-25T07:41:17;6.57;;;1.33;;
54937;SDS011;52756;52.826;6.214;2023-04-25T07:43:43;7.13;;;1.63;;
54937;SDS011;52756;52.826;6.214;2023-04-25T07:46:09;5.20;;;1.33;;
54937;SDS011;52756;52.826;6.214;2023-04-25T07:48:35;7.63;;;1.77;;
54937;SDS011;52756;52.826;6.214;2023-04-25T07:51:00;6.20;;;1.65;;
54937;SDS011;52756;52.826;6.214;2023-04-25T07:53:26;6.25;;;1.38;;
54937;SDS011;52756;52.826;6.214;2023-04-25T07:55:52;5.93;;;1.67;;
54937;SDS011;52756;52.826;6.214;2023-04-25T07:58:18;4.30;;;0.90;;
54937;SDS011;52756;52.826;6.214;2023-04-25T08:00:46;3.47;;;0.90;;
54937;SDS011;52756;52.826;6.214;2023-04-25T08:03:13;3.30;;;0.85;;
54937;SDS011;52756;52.826;6.214;2023-04-25T08:05:38;3.50;;;1.05;;
54937;SDS011;52756;52.826;6.214;2023-04-25T08:08:04;2.13;;;0.82;;
54937;SDS011;52756;52.826;6.214;2023-04-25T08:10:32;3.20;;;0.80;;
54937;SDS011;52756;52.826;6.214;2023-04-25T08:12:58;4.57;;;0.77;;
54937;SDS011;52756;52.826;6.214;2023-04-25T08:15:24;5.10;;;1.42;;
54937;SDS011;52756;52.826;6.214;2023-04-25T08:17:50;5.65;;;1.25;;
54937;SDS011;52756;52.826;6.214;2023-04-25T08:20:16;6.57;;;1.75;;
54937;SDS011;52756;52.826;6.214;2023-04-25T08:22:42;10.93;;;3.70;;
54937;SDS011;52756;52.826;6.214;2023-04-25T08:25:08;9.73;;;2.67;;
54937;SDS011;52756;52.826;6.214;2023-04-25T08:27:33;6.45;;;2.00;;
54937;SDS011;52756;52.826;6.214;2023-04-25T08:30:00;8.15;;;1.50;;
54937;SDS011;52756;52.826;6.214;2023-04-25T08:32:28;5.68;;;1.33;;
54937;SDS011;52756;52.826;6.214;2023-04-25T08:34:53;5.65;;;1.20;;
54937;SDS011;52756;52.826;6.214;2023-04-25T08:37:20;4.90;;;0.98;;
54937;SDS011;52756;52.826;6.214;2023-04-25T08:39:46;5.50;;;1.27;;
54937;SDS011;52756;52.826;6.214;2023-04-25T08:42:18;3.17;;;0.80;;
54937;SDS011;52756;52.826;6.214;2023-04-25T08:44:46;6.93;;;1.02;;
54937;SDS011;52756;52.826;6.214;2023-04-25T08:47:14;4.85;;;1.27;;
54937;SDS011;52756;52.826;6.214;2023-04-25T08:49:39;4.00;;;1.08;;
54937;SDS011;52756;52.826;6.214;2023-04-25T08:52:10;6.82;;;1.45;;
54937;SDS011;52756;52.826;6.214;2023-04-25T08:54:41;7.07;;;1.65;;
54937;SDS011;52756;52.826;6.214;2023-04-25T08:59:40;4.78;;;1.30;;
54937;SDS011;52756;52.826;6.214;2023-04-25T09:02:11;5.22;;;1.10;;
54937;SDS011;52756;52.826;6.214;2023-04-25T09:04:42;4.60;;;1.13;;
54937;SDS011;52756;52.826;6.214;2023-04-25T09:07:08;6.75;;;1.73;;
54937;SDS011;52756;52.826;6.214;2023-04-25T09:09:34;4.78;;;1.45;;
54937;SDS011;52756;52.826;6.214;2023-04-25T09:12:01;6.25;;;1.45;;
54937;SDS011;52756;52.826;6.214;2023-04-25T09:14:27;6.03;;;1.67;;
54937;SDS011;52756;52.826;6.214;2023-04-25T09:19:25;7.55;;;1.88;;
54937;SDS011;52756;52.826;6.214;2023-04-25T09:21:59;9.02;;;2.33;;
54937;SDS011;52756;52.826;6.214;2023-04-25T09:24:34;7.50;;;1.60;;
54937;SDS011;52756;52.826;6.214;2023-04-25T09:27:08;7.82;;;2.20;;
54937;SDS011;52756;52.826;6.214;2023-04-25T09:29:36;7.18;;;2.03;;
54937;SDS011;52756;52.826;6.214;2023-04-25T09:34:43;6.25;;;2.13;;
54937;SDS011;52756;52.826;6.214;2023-04-25T09:37:13;6.97;;;1.65;;
54937;SDS011;52756;52.826;6.214;2023-04-25T09:39:44;9.32;;;1.73;;
54937;SDS011;52756;52.826;6.214;2023-04-25T09:42:11;7.22;;;1.50;;
54937;SDS011;52756;52.826;6.214;2023-04-25T09:44:36;7.00;;;1.88;;
54937;SDS011;52756;52.826;6.214;2023-04-25T09:47:09;5.35;;;1.35;;
54937;SDS011;52756;52.826;6.214;2023-04-25T09:49:38;5.45;;;1.40;;
54937;SDS011;52756;52.826;6.214;2023-04-25T09:52:06;5.63;;;1.48;;
54937;SDS011;52756;52.826;6.214;2023-04-25T09:54:32;6.65;;;2.38;;
54937;SDS011;52756;52.826;6.214;2023-04-25T09:56:57;8.52;;;1.52;;
54937;SDS011;52756;52.826;6.214;2023-04-25T09:59:47;7.65;;;1.42;;
54937;SDS011;52756;52.826;6.214;2023-04-25T10:02:15;8.80;;;1.70;;
54937;SDS011;52756;52.826;6.214;2023-04-25T10:04:42;6.43;;;1.83;;
54937;SDS011;52756;52.826;6.214;2023-04-25T10:07:12;4.60;;;1.33;;
54937;SDS011;52756;52.826;6.214;2023-04-25T10:09:38;7.30;;;1.13;;
54937;SDS011;52756;52.826;6.214;2023-04-25T10:12:05;6.57;;;1.48;;
54937;SDS011;52756;52.826;6.214;2023-04-25T10:14:32;6.82;;;1.83;;
54937;SDS011;52756;52.826;6.214;2023-04-25T10:16:59;4.90;;;1.17;;
54937;SDS011;52756;52.826;6.214;2023-04-25T10:19:25;4.90;;;1.15;;
54937;SDS011;52756;52.826;6.214;2023-04-25T10:21:58;4.97;;;1.08;;
54937;SDS011;52756;52.826;6.214;2023-04-25T10:24:46;3.30;;;0.90;;
54937;SDS011;52756;52.826;6.214;2023-04-25T10:27:12;4.40;;;0.80;;
54937;SDS011;52756;52.826;6.214;2023-04-25T10:29:39;4.18;;;1.00;;
54937;SDS011;52756;52.826;6.214;2023-04-25T10:32:08;4.90;;;1.02;;
54937;SDS011;52756;52.826;6.214;2023-04-25T10:34:41;7.18;;;1.40;;
54937;SDS011;52756;52.826;6.214;2023-04-25T10:37:13;5.40;;;1.27;;
54937;SDS011;52756;52.826;6.214;2023-04-25T10:39:39;5.65;;;1.33;;
54937;SDS011;52756;52.826;6.214;2023-04-25T10:42:08;5.82;;;1.33;;
54937;SDS011;52756;52.826;6.214;2023-04-25T10:44:34;4.65;;;0.88;;
54937;SDS011;52756;52.826;6.214;2023-04-25T10:47:02;4.45;;;1.10;;
54937;SDS011;52756;52.826;6.214;2023-04-25T10:49:34;4.75;;;1.00;;
54937;SDS011;52756;52.826;6.214;2023-04-25T10:52:17;5.10;;;1.33;;
54937;SDS011;52756;52.826;6.214;2023-04-25T10:54:51;6.60;;;1.30;;
54937;SDS011;52756;52.826;6.214;2023-04-25T11:00:00;4.75;;;1.33;;
54937;SDS011;52756;52.826;6.214;2023-04-25T11:02:40;11.15;;;2.33;;
54937;SDS011;52756;52.826;6.214;2023-04-25T11:05:10;7.15;;;1.60;;
54937;SDS011;52756;52.826;6.214;2023-04-25T11:07:50;6.45;;;1.35;;
54937;SDS011;52756;52.826;6.214;2023-04-25T11:10:19;7.15;;;1.48;;
54937;SDS011;52756;52.826;6.214;2023-04-25T11:12:45;5.20;;;1.75;;
54937;SDS011;52756;52.826;6.214;2023-04-25T11:15:12;7.60;;;2.03;;
54937;SDS011;52756;52.826;6.214;2023-04-25T11:17:38;8.15;;;2.00;;
54937;SDS011;52756;52.826;6.214;2023-04-25T11:20:06;7.53;;;2.22;;
54937;SDS011;52756;52.826;6.214;2023-04-25T11:22:36;4.40;;;1.50;;
54937;SDS011;52756;52.826;6.214;2023-04-25T11:25:04;4.80;;;1.88;;
54937;SDS011;52756;52.826;6.214;2023-04-25T11:27:31;3.67;;;1.00;;
54937;SDS011;52756;52.826;6.214;2023-04-25T11:29:57;7.15;;;1.55;;
54937;SDS011;52756;52.826;6.214;2023-04-25T11:32:23;5.72;;;1.50;;
54937;SDS011;52756;52.826;6.214;2023-04-25T11:34:49;8.73;;;1.23;;
54937;SDS011;52756;52.826;6.214;2023-04-25T11:37:14;3.50;;;0.98;;
54937;SDS011;52756;52.826;6.214;2023-04-25T11:39:44;9.50;;;1.77;;
54937;SDS011;52756;52.826;6.214;2023-04-25T11:42:13;5.50;;;1.50;;
54937;SDS011;52756;52.826;6.214;2023-04-25T11:44:39;4.28;;;1.02;;
54937;SDS011;52756;52.826;6.214;2023-04-25T11:47:05;6.50;;;1.17;;
54937;SDS011;52756;52.826;6.214;2023-04-25T11:49:31;5.82;;;1.40;;
54937;SDS011;52756;52.826;6.214;2023-04-25T11:51:57;5.43;;;1.02;;
54937;SDS011;52756;52.826;6.214;2023-04-25T11:54:23;7.13;;;1.50;;
54937;SDS011;52756;52.826;6.214;2023-04-25T11:56:48;7.65;;;1.35;;
54937;SDS011;52756;52.826;6.214;2023-04-25T11:59:14;7.03;;;2.10;;
54937;SDS011;52756;52.826;6.214;2023-04-25T12:01:49;7.60;;;1.60;;
54937;SDS011;52756;52.826;6.214;2023-04-25T12:06:45;5.85;;;2.05;;
54937;SDS011;52756;52.826;6.214;2023-04-25T12:09:14;3.05;;;1.20;;
54937;SDS011;52756;52.826;6.214;2023-04-25T12:11:52;6.40;;;1.67;;
54937;SDS011;52756;52.826;6.214;2023-04-25T12:14:26;5.38;;;1.20;;
54937;SDS011;52756;52.826;6.214;2023-04-25T12:17:00;3.45;;;0.95;;
54937;SDS011;52756;52.826;6.214;2023-04-25T12:19:31;4.93;;;1.50;;
54937;SDS011;52756;52.826;6.214;2023-04-25T12:22:01;3.10;;;1.42;;
54937;SDS011;52756;52.826;6.214;2023-04-25T12:24:28;4.80;;;1.45;;
54937;SDS011;52756;52.826;6.214;2023-04-25T12:27:03;3.97;;;1.30;;
54937;SDS011;52756;52.826;6.214;2023-04-25T12:29:31;5.13;;;1.50;;
54937;SDS011;52756;52.826;6.214;2023-04-25T12:31:59;4.22;;;1.10;;
54937;SDS011;52756;52.826;6.214;2023-04-25T12:34:26;7.43;;;1.70;;
54937;SDS011;52756;52.826;6.214;2023-04-25T12:36:52;5.68;;;1.35;;
54937;SDS011;52756;52.826;6.214;2023-04-25T12:39:23;6.63;;;1.60;;
54937;SDS011;52756;52.826;6.214;2023-04-25T12:41:49;5.70;;;1.40;;
54937;SDS011;52756;52.826;6.214;2023-04-25T12:44:16;6.50;;;1.95;;
54937;SDS011;52756;52.826;6.214;2023-04-25T12:46:42;11.60;;;2.90;;
54937;SDS011;52756;52.826;6.214;2023-04-25T12:49:08;13.70;;;3.05;;
54937;SDS011;52756;52.826;6.214;2023-04-25T12:51:34;5.18;;;2.00;;
54937;SDS011;52756;52.826;6.214;2023-04-25T12:54:01;7.68;;;1.73;;
54937;SDS011;52756;52.826;6.214;2023-04-25T12:56:28;6.15;;;1.85;;
54937;SDS011;52756;52.826;6.214;2023-04-25T12:58:54;7.07;;;1.77;;
54937;SDS011;52756;52.826;6.214;2023-04-25T13:01:20;7.07;;;1.60;;
54937;SDS011;52756;52.826;6.214;2023-04-25T13:03:47;8.00;;;1.73;;
54937;SDS011;52756;52.826;6.214;2023-04-25T13:06:14;7.70;;;1.52;;
54937;SDS011;52756;52.826;6.214;2023-04-25T13:08:40;7.30;;;1.70;;
54937;SDS011;52756;52.826;6.214;2023-04-25T13:11:07;5.85;;;1.50;;
54937;SDS011;52756;52.826;6.214;2023-04-25T13:13:33;5.97;;;1.45;;
54937;SDS011;52756;52.826;6.214;2023-04-25T13:16:02;8.63;;;1.63;;
54937;SDS011;52756;52.826;6.214;2023-04-25T13:18:29;6.75;;;2.55;;
54937;SDS011;52756;52.826;6.214;2023-04-25T13:20:56;6.65;;;1.88;;
54937;SDS011;52756;52.826;6.214;2023-04-25T13:23:23;8.38;;;1.80;;
54937;SDS011;52756;52.826;6.214;2023-04-25T13:25:51;8.05;;;1.35;;
54937;SDS011;52756;52.826;6.214;2023-04-25T13:28:17;4.85;;;1.73;;
54937;SDS011;52756;52.826;6.214;2023-04-25T13:30:43;4.47;;;1.95;;
54937;SDS011;52756;52.826;6.214;2023-04-25T13:33:10;5.82;;;1.65;;
54937;SDS011;52756;52.826;6.214;2023-04-25T13:35:37;7.15;;;1.83;;
54937;SDS011;52756;52.826;6.214;2023-04-25T13:38:03;4.50;;;1.67;;
54937;SDS011;52756;52.826;6.214;2023-04-25T13:40:29;4.78;;;1.50;;
54937;SDS011;52756;52.826;6.214;2023-04-25T13:42:56;5.32;;;1.00;;
54937;SDS011;52756;52.826;6.214;2023-04-25T13:45:22;4.97;;;1.38;;
54937;SDS011;52756;52.826;6.214;2023-04-25T13:47:48;4.65;;;1.20;;
54937;SDS011;52756;52.826;6.214;2023-04-25T13:50:14;7.32;;;1.52;;
54937;SDS011;52756;52.826;6.214;2023-04-25T13:52:40;4.82;;;0.95;;
54937;SDS011;52756;52.826;6.214;2023-04-25T13:55:06;6.25;;;1.58;;
54937;SDS011;52756;52.826;6.214;2023-04-25T13:57:33;11.88;;;2.42;;
54937;SDS011;52756;52.826;6.214;2023-04-25T13:59:59;4.03;;;1.10;;
54937;SDS011;52756;52.826;6.214;2023-04-25T14:02:29;5.45;;;1.27;;
54937;SDS011;52756;52.826;6.214;2023-04-25T14:04:55;6.00;;;1.13;;
54937;SDS011;52756;52.826;6.214;2023-04-25T14:07:21;6.80;;;1.35;;
54937;SDS011;52756;52.826;6.214;2023-04-25T14:09:47;5.50;;;1.55;;
54937;SDS011;52756;52.826;6.214;2023-04-25T14:12:12;8.63;;;1.55;;
54937;SDS011;52756;52.826;6.214;2023-04-25T14:14:38;6.10;;;1.40;;
54937;SDS011;52756;52.826;6.214;2023-04-25T14:17:04;3.72;;;1.17;;
54937;SDS011;52756;52.826;6.214;2023-04-25T14:19:31;2.70;;;1.27;;
54937;SDS011;52756;52.826;6.214;2023-04-25T14:21:57;4.53;;;1.13;;
54937;SDS011;52756;52.826;6.214;2023-04-25T14:24:22;6.55;;;1.73;;
54937;SDS011;52756;52.826;6.214;2023-04-25T14:26:48;7.93;;;1.65;;
54937;SDS011;52756;52.826;6.214;2023-04-25T14:29:14;4.65;;;1.75;;
54937;SDS011;52756;52.826;6.214;2023-04-25T14:31:39;5.97;;;1.38;;
54937;SDS011;52756;52.826;6.214;2023-04-25T14:34:06;5.22;;;1.15;;
54937;SDS011;52756;52.826;6.214;2023-04-25T14:36:32;6.68;;;1.70;;
54937;SDS011;52756;52.826;6.214;2023-04-25T14:38:58;7.50;;;1.40;;
54937;SDS011;52756;52.826;6.214;2023-04-25T14:41:24;6.95;;;1.52;;
54937;SDS011;52756;52.826;6.214;2023-04-25T14:43:51;6.60;;;1.35;;
54937;SDS011;52756;52.826;6.214;2023-04-25T14:46:18;5.93;;;1.52;;
54937;SDS011;52756;52.826;6.214;2023-04-25T14:48:45;8.07;;;1.30;;
54937;SDS011;52756;52.826;6.214;2023-04-25T14:51:12;7.25;;;2.00;;
54937;SDS011;52756;52.826;6.214;2023-04-25T14:53:37;6.85;;;1.88;;
54937;SDS011;52756;52.826;6.214;2023-04-25T14:56:04;6.05;;;1.45;;